Time;durP1;ratioP1;P1;durP2;ratioP2;P2;SDS_P1;SDS_P2;PMS_P1;PMS_P2;Temp;Humidity;BMP_temperature;BMP_pressure;BME280_temperature;BME280_humidity;BME280_pressure;Samples;Min_cycle;Max_cycle;Signal;HPM_P1;HPM_P2
2021/12/27 00:01:12;;;;;;;248.75;124.43;;;;;;;9.94;100.00;99316.53;4800775;29;20515;-66
2021/12/27 00:04:01;;;;;;;245.90;125.85;;;;;;;10.00;100.00;99320.72;4791779;29;20123;-65
2021/12/27 00:06:44;;;;;;;255.65;127.45;;;;;;;9.86;100.00;99320.09;4798885;29;20059;-66
2021/12/27 00:09:35;;;;;;;260.35;128.85;;;;;;;9.90;100.00;99324.31;4789054;29;20065;-66
2021/12/27 00:12:24;;;;;;;251.10;125.97;;;;;;;9.74;100.00;99317.72;4795074;29;20073;-66
2021/12/27 00:15:05;;;;;;;253.50;125.25;;;;;;;9.73;100.00;99316.03;4815184;29;20051;-66
2021/12/27 00:17:53;;;;;;;253.23;126.00;;;;;;;9.96;100.00;99317.34;4800805;29;20069;-66
2021/12/27 00:20:35;;;;;;;244.18;121.75;;;;;;;9.98;100.00;99310.44;4784411;29;20054;-66
2021/12/27 00:23:24;;;;;;;243.20;124.00;;;;;;;10.06;100.00;99315.44;4800262;29;20066;-65
2021/12/27 00:26:12;;;;;;;255.60;125.00;;;;;;;9.94;100.00;99307.97;4782408;29;20120;-66
2021/12/27 00:29:01;;;;;;;237.95;122.13;;;;;;;9.79;100.00;99306.50;4809705;29;20054;-66
2021/12/27 00:31:50;;;;;;;240.52;124.75;;;;;;;9.87;100.00;99309.78;4797847;29;20079;-66
2021/12/27 00:34:39;;;;;;;262.98;129.65;;;;;;;9.96;100.00;99312.22;4810608;29;20069;-66
2021/12/27 00:37:21;;;;;;;246.90;125.13;;;;;;;9.83;100.00;99309.84;4788444;29;20071;-67
2021/12/27 00:40:11;;;;;;;254.63;126.63;;;;;;;9.87;100.00;99311.50;4798715;29;20129;-67
2021/12/27 00:42:53;;;;;;;263.38;131.50;;;;;;;9.95;100.00;99323.38;4782763;29;20055;-66
2021/12/27 00:45:50;;;;;;;268.42;130.68;;;;;;;9.80;100.00;99322.78;4782359;29;20278;-66
2021/12/27 00:48:26;;;;;;;275.42;129.98;;;;;;;9.82;100.00;99326.16;4794850;29;20059;-67
2021/12/27 00:51:21;;;;;;;267.58;129.77;;;;;;;9.80;100.00;99335.66;4800585;29;20102;-67
2021/12/27 00:53:56;;;;;;;252.43;124.70;;;;;;;9.77;100.00;99338.25;4796151;29;20704;-66
2021/12/27 00:56:45;;;;;;;258.38;127.25;;;;;;;9.91;100.00;99336.31;4799460;29;20372;-67
2021/12/27 00:59:27;;;;;;;270.02;130.18;;;;;;;9.88;100.00;99338.94;4765569;29;20077;-66
2021/12/27 01:02:22;;;;;;;249.43;126.32;;;;;;;9.91;100.00;99346.59;4777875;29;20051;-66
2021/12/27 01:04:57;;;;;;;259.42;130.88;;;;;;;9.88;100.00;99346.66;4786261;29;20381;-67
2021/12/27 01:07:46;;;;;;;276.15;131.98;;;;;;;9.77;100.00;99353.69;4787309;29;20046;-66
2021/12/27 01:11:00;;;;;;;260.33;129.40;;;;;;;9.80;100.00;99359.66;4796297;29;20063;-66
2021/12/27 01:14:14;;;;;;;258.40;127.63;;;;;;;9.71;100.00;99353.81;4764308;30;20086;-67
2021/12/27 01:16:52;;;;;;;273.67;136.20;;;;;;;9.72;100.00;99360.66;4782101;29;20059;-67
2021/12/27 01:19:41;;;;;;;262.90;128.95;;;;;;;9.63;100.00;99360.78;4788096;29;20477;-65
2021/12/27 01:22:22;;;;;;;253.52;125.97;;;;;;;9.70;100.00;99363.25;4801799;29;20047;-67
2021/12/27 01:25:17;;;;;;;274.95;132.63;;;;;;;9.53;100.00;99360.94;4789151;29;20073;-67
2021/12/27 01:27:53;;;;;;;261.95;130.70;;;;;;;9.50;100.00;99360.09;4789034;29;20365;-67
2021/12/27 01:30:49;;;;;;;264.23;129.77;;;;;;;9.41;100.00;99358.56;4768779;30;20067;-67
2021/12/27 01:33:26;;;;;;;271.63;134.80;;;;;;;9.31;100.00;99358.69;4781469;29;20059;-66
2021/12/27 01:36:21;;;;;;;263.48;131.32;;;;;;;9.40;100.00;99358.56;4781420;29;20088;-67
2021/12/27 01:38:56;;;;;;;272.13;132.15;;;;;;;9.46;100.00;99356.75;4781918;29;20078;-67
2021/12/27 01:41:45;;;;;;;266.90;132.73;;;;;;;9.42;100.00;99367.94;4781286;29;20521;-67
2021/12/27 01:44:33;;;;;;;276.45;132.82;;;;;;;9.54;100.00;99367.78;4786432;29;20058;-67
2021/12/27 01:47:15;;;;;;;268.98;130.85;;;;;;;9.44;100.00;99365.34;4783387;29;20081;-67
2021/12/27 01:50:03;;;;;;;272.10;132.55;;;;;;;9.34;100.00;99367.19;4791377;29;20062;-67
2021/12/27 01:52:45;;;;;;;275.13;133.20;;;;;;;9.40;100.00;99359.41;4797258;29;20059;-67
2021/12/27 01:55:33;;;;;;;277.50;132.70;;;;;;;9.36;100.00;99367.19;4781289;29;20055;-65
2021/12/27 01:58:17;;;;;;;283.15;136.93;;;;;;;9.36;100.00;99373.16;4786714;29;20046;-66
2021/12/27 02:01:15;;;;;;;264.67;131.73;;;;;;;9.52;100.00;99382.38;4789054;29;20484;-66
2021/12/27 02:04:04;;;;;;;272.42;131.38;;;;;;;9.45;100.00;99375.63;4796022;29;20492;-66
2021/12/27 02:06:53;;;;;;;264.58;130.88;;;;;;;9.29;100.00;99378.41;4784322;29;20043;-67
2021/12/27 02:09:47;;;;;;;265.70;132.90;;;;;;;9.50;100.00;99383.25;4787764;29;20065;-67
2021/12/27 02:12:39;;;;;;;273.55;132.45;;;;;;;9.56;100.00;99384.03;4784320;29;20063;-67
2021/12/27 02:15:22;;;;;;;279.55;134.77;;;;;;;9.39;100.00;99388.56;4789219;29;20059;-67
2021/12/27 02:18:12;;;;;;;271.67;132.00;;;;;;;9.51;100.00;99388.38;4784725;29;20489;-67
2021/12/27 02:21:00;;;;;;;279.58;137.95;;;;;;;9.65;100.00;99395.91;4789541;29;20050;-68
2021/12/27 02:23:53;;;;;;;289.25;138.93;;;;;;;9.67;100.00;99399.28;4786590;29;20081;-67
2021/12/27 02:26:41;;;;;;;293.98;150.30;;;;;;;9.71;100.00;99400.09;4792524;29;20468;-67
2021/12/27 02:29:23;;;;;;;289.75;148.15;;;;;;;9.84;100.00;99406.75;4787820;29;20054;-67
2021/12/27 02:32:11;;;;;;;301.27;143.45;;;;;;;9.99;100.00;99409.09;4786603;29;20040;-67
2021/12/27 02:35:00;;;;;;;300.10;145.15;;;;;;;9.97;100.00;99414.28;4786998;29;20059;-66
2021/12/27 02:37:42;;;;;;;289.65;144.98;;;;;;;9.99;100.00;99421.97;4791130;29;20052;-66
2021/12/27 02:40:34;;;;;;;311.42;146.23;;;;;;;10.18;100.00;99418.25;4788758;29;20046;-66
2021/12/27 02:43:29;;;;;;;296.88;143.50;;;;;;;10.22;100.00;99425.03;4789516;29;20055;-66
2021/12/27 02:46:07;;;;;;;292.52;144.55;;;;;;;10.31;100.00;99424.03;4789635;29;20088;-66
2021/12/27 02:48:56;;;;;;;298.75;149.05;;;;;;;10.48;100.00;99436.63;4788208;29;20066;-66
2021/12/27 02:51:45;;;;;;;292.02;147.23;;;;;;;10.61;100.00;99438.97;4789866;29;20790;-66
2021/12/27 02:54:27;;;;;;;311.20;157.07;;;;;;;10.80;100.00;99438.63;4790295;29;20047;-66
2021/12/27 02:57:17;;;;;;;339.55;158.05;;;;;;;10.81;100.00;99440.31;4788983;29;20399;-66
2021/12/27 03:00:06;;;;;;;337.88;162.30;;;;;;;10.83;100.00;99442.00;4789970;29;20100;-65
2021/12/27 03:02:50;;;;;;;328.25;161.60;;;;;;;10.95;100.00;99441.75;4790733;29;20051;-67
2021/12/27 03:05:39;;;;;;;352.50;164.80;;;;;;;11.01;100.00;99439.09;4803415;29;20043;-66
2021/12/27 03:08:29;;;;;;;349.13;166.57;;;;;;;11.15;100.00;99433.66;4792561;29;20524;-66
2021/12/27 03:11:18;;;;;;;359.85;171.85;;;;;;;11.26;100.00;99446.31;4798022;29;20538;-66
2021/12/27 03:14:00;;;;;;;357.92;175.82;;;;;;;11.32;100.00;99443.63;4799503;29;20371;-66
2021/12/27 03:16:50;;;;;;;349.90;173.13;;;;;;;11.41;100.00;99448.59;4783721;29;20107;-66
2021/12/27 03:19:45;;;;;;;336.67;166.98;;;;;;;11.65;100.00;99448.06;4809344;29;20146;-67
2021/12/27 03:22:21;;;;;;;354.58;174.73;;;;;;;11.92;100.00;99456.09;4797820;29;20135;-66
2021/12/27 03:25:14;;;;;;;321.77;167.95;;;;;;;11.91;100.00;99454.38;4797580;29;20752;-66
2021/12/27 03:28:08;;;;;;;349.00;169.55;;;;;;;11.86;100.00;99457.94;4798204;29;20055;-66
2021/12/27 03:31:04;;;;;;;332.52;169.65;;;;;;;12.12;100.00;99467.66;4795228;29;20055;-66
2021/12/27 03:33:39;;;;;;;335.13;166.50;;;;;;;12.47;100.00;99469.38;4780017;29;20110;-65
2021/12/27 03:36:28;;;;;;;345.50;171.77;;;;;;;12.79;100.00;99478.88;4790683;29;20149;-67
2021/12/27 03:39:17;;;;;;;334.60;169.13;;;;;;;13.05;100.00;99483.38;4790557;29;20051;-65
2021/12/27 03:41:59;;;;;;;342.75;173.57;;;;;;;13.18;100.00;99486.50;4793475;29;20071;-66
2021/12/27 03:44:50;;;;;;;327.60;170.57;;;;;;;13.32;100.00;99489.56;4795353;29;20059;-66
2021/12/27 03:47:32;;;;;;;350.40;174.27;;;;;;;13.57;100.00;99495.72;4801284;29;20057;-67
2021/12/27 03:50:21;;;;;;;344.25;178.82;;;;;;;13.86;100.00;99506.97;4789573;29;20051;-67
2021/12/27 03:53:06;;;;;;;360.52;183.02;;;;;;;14.24;100.00;99508.38;4783290;29;20058;-66
2021/12/27 03:55:54;;;;;;;358.60;182.68;;;;;;;14.15;100.00;99514.69;4804570;29;20067;-65
2021/12/27 03:58:59;;;;;;;362.20;189.55;;;;;;;13.85;100.00;99515.63;4802210;29;20066;-66
2021/12/27 04:01:54;;;;;;;371.98;189.02;;;;;;;14.35;100.00;99516.69;4766239;29;20068;-66
2021/12/27 04:04:50;;;;;;;390.02;201.02;;;;;;;14.24;100.00;99529.13;4771998;29;20055;-66
2021/12/27 04:07:27;;;;;;;395.63;203.02;;;;;;;14.49;100.00;99530.06;4782914;29;20552;-66
2021/12/27 04:10:22;;;;;;;397.52;202.93;;;;;;;14.36;100.00;99527.00;4765301;29;20060;-66
2021/12/27 04:12:57;;;;;;;395.35;204.32;;;;;;;14.94;100.00;99535.47;4766051;29;20055;-66
2021/12/27 04:15:46;;;;;;;403.33;202.35;;;;;;;14.63;100.00;99551.22;4777520;29;20476;-66
2021/12/27 04:18:28;;;;;;;383.00;197.77;;;;;;;14.86;100.00;99546.09;4780883;29;20540;-67
2021/12/27 04:21:17;;;;;;;391.15;199.10;;;;;;;14.80;100.00;99548.91;4746395;30;20055;-68
2021/12/27 04:23:59;;;;;;;383.50;199.75;;;;;;;15.06;100.00;99548.03;4744128;30;20071;-68
2021/12/27 04:26:55;;;;;;;382.13;200.60;;;;;;;14.61;100.00;99550.41;4770538;29;20369;-67
2021/12/27 04:29:43;;;;;;;369.75;197.70;;;;;;;14.98;100.00;99554.38;4771922;29;20075;-66
2021/12/27 04:32:25;;;;;;;362.45;188.20;;;;;;;14.81;100.00;99558.41;4778508;29;20101;-66
2021/12/27 04:35:15;;;;;;;343.00;187.32;;;;;;;15.03;100.00;99562.84;4769306;29;20137;-65
2021/12/27 04:38:05;;;;;;;342.35;182.52;;;;;;;15.28;100.00;99561.97;4779526;29;20077;-66
2021/12/27 04:40:49;;;;;;;344.75;183.45;;;;;;;15.30;100.00;99562.78;4747315;30;20541;-66
2021/12/27 04:43:38;;;;;;;348.52;180.15;;;;;;;15.68;100.00;99558.81;4768298;29;20562;-66
2021/12/27 04:46:20;;;;;;;358.15;184.27;;;;;;;15.79;100.00;99570.59;4781013;29;20376;-66
2021/12/27 04:49:09;;;;;;;331.05;178.63;;;;;;;15.90;100.00;99571.84;4769348;29;20075;-66
2021/12/27 04:51:59;;;;;;;332.52;180.98;;;;;;;15.95;100.00;99571.72;4767366;29;20067;-67
2021/12/27 04:54:40;;;;;;;326.65;178.85;;;;;;;15.70;100.00;99566.56;4763684;29;20121;-65
2021/12/27 04:57:31;;;;;;;349.95;183.10;;;;;;;15.66;100.00;99565.81;4774395;29;20131;-66
2021/12/27 05:00:14;;;;;;;357.70;184.95;;;;;;;15.61;100.00;99572.09;4787991;29;20079;-66
2021/12/27 05:03:03;;;;;;;350.63;187.80;;;;;;;15.38;100.00;99565.09;4792891;29;20480;-66
2021/12/27 05:05:47;;;;;;;320.08;171.55;;;;;;;15.57;100.00;99566.16;4787771;29;20683;-66
2021/12/27 05:08:43;;;;;;;324.40;169.25;;;;;;;15.61;100.00;99570.34;4787953;29;20582;-65
2021/12/27 05:11:20;;;;;;;322.00;166.40;;;;;;;15.90;100.00;99569.25;4782665;29;20158;-67
2021/12/27 05:14:09;;;;;;;315.48;161.00;;;;;;;16.03;100.00;99569.66;4791018;29;20058;-66
2021/12/27 05:16:59;;;;;;;288.83;154.57;;;;;;;15.66;100.00;99568.41;4791205;29;20051;-66
2021/12/27 05:19:42;;;;;;;;;;;;;;;15.85;100.00;99568.59;4793447;29;20051;-66
2021/12/27 05:22:31;;;;;;;278.45;150.75;;;;;;;15.80;100.00;99569.69;4786231;29;19928;-65
2021/12/27 05:25:16;;;;;;;282.98;151.30;;;;;;;16.01;100.00;99571.47;4786896;29;20086;-67
2021/12/27 05:27:57;;;;;;;288.70;153.73;;;;;;;16.15;100.00;99569.19;4795437;29;20133;-71
2021/12/27 05:30:48;;;;;;;285.92;152.73;;;;;;;15.93;100.00;99568.31;4789560;29;20539;-66
2021/12/27 05:33:29;;;;;;;298.85;153.35;;;;;;;16.04;100.00;99553.16;4789247;29;20130;-66
2021/12/27 05:36:14;;;;;;;284.98;152.23;;;;;;;15.81;100.00;99545.38;4788440;29;20055;-66
2021/12/27 05:39:03;;;;;;;289.88;152.60;;;;;;;16.58;100.00;99541.50;4792238;29;20102;-66
2021/12/27 05:41:45;;;;;;;283.65;154.50;;;;;;;16.75;100.00;99539.94;4789164;29;20084;-66
2021/12/27 05:44:35;;;;;;;284.38;152.35;;;;;;;15.86;100.00;99535.66;4788760;29;20054;-67
2021/12/27 05:47:31;;;;;;;266.02;149.07;;;;;;;16.31;100.00;99533.88;4783359;29;20054;-67
2021/12/27 05:50:07;;;;;;;259.52;145.20;;;;;;;16.83;100.00;99524.00;4796558;29;20047;-66
2021/12/27 05:53:04;;;;;;;254.98;139.30;;;;;;;17.17;100.00;99531.19;4787996;29;20053;-67
2021/12/27 05:55:39;;;;;;;251.82;138.15;;;;;;;16.74;100.00;99526.97;4786958;29;20043;-65
2021/12/27 05:58:28;;;;;;;260.05;133.23;;;;;;;16.61;100.00;99523.19;4787093;29;20063;-65
2021/12/27 06:01:10;;;;;;;230.50;128.00;;;;;;;16.94;100.00;99521.78;4788709;29;20062;-65
2021/12/27 06:04:07;;;;;;;248.18;132.38;;;;;;;16.92;100.00;99512.38;4787423;29;20043;-66
2021/12/27 06:06:42;;;;;;;259.35;139.27;;;;;;;16.76;100.00;99506.97;4792273;29;20476;-65
2021/12/27 06:09:31;;;;;;;248.25;135.60;;;;;;;16.84;100.00;99512.69;4789447;29;20470;-65
2021/12/27 06:12:20;;;;;;;245.55;133.23;;;;;;;17.38;100.00;99513.81;4803132;29;20059;-65
2021/12/27 06:15:11;;;;;;;233.80;128.73;;;;;;;17.46;100.00;99509.09;4787037;29;20104;-63
2021/12/27 06:18:01;;;;;;;224.50;126.68;;;;;;;17.82;100.00;99504.84;4788694;29;20071;-67
2021/12/27 06:20:43;;;;;;;224.50;123.32;;;;;;;16.97;100.00;99506.03;4802881;29;20859;-65
2021/12/27 06:23:34;;;;;;;238.82;127.15;;;;;;;17.56;100.00;99499.94;4799305;29;20415;-65
2021/12/27 06:26:17;;;;;;;230.15;125.57;;;;;;;17.85;100.00;99507.31;4795843;29;20055;-65
2021/12/27 06:29:07;;;;;;;223.35;119.53;;;;;;;17.79;97.63;99494.59;4812021;29;20302;-65
2021/12/27 06:31:49;;;;;;;215.32;121.22;;;;;;;18.01;98.47;99483.13;4789268;29;20511;-66
2021/12/27 06:34:38;;;;;;;216.23;117.03;;;;;;;17.91;97.59;99473.13;4800496;29;20063;-64
2021/12/27 06:37:27;;;;;;;207.90;118.93;;;;;;;18.11;93.91;99469.59;4785875;29;20133;-67
2021/12/27 06:40:10;;;;;;;221.93;119.38;;;;;;;18.34;95.08;99477.16;4791246;29;20788;-68
2021/12/27 06:42:59;;;;;;;208.18;118.30;;;;;;;18.38;94.21;99470.00;4787756;29;20059;-68
2021/12/27 06:45:42;;;;;;;225.57;120.43;;;;;;;17.99;92.93;99457.13;4786048;29;20061;-68
2021/12/27 06:48:31;;;;;;;209.50;119.45;;;;;;;18.18;92.88;99460.56;4787220;29;20051;-69
2021/12/27 06:51:21;;;;;;;207.88;116.78;;;;;;;18.27;92.56;99459.25;4779706;29;20058;-65
2021/12/27 06:54:09;;;;;;;201.70;114.00;;;;;;;18.48;93.45;99452.13;4785903;29;20126;-67
2021/12/27 06:57:00;;;;;;;212.65;111.38;;;;;;;18.50;88.23;99453.75;4787386;29;20121;-70
2021/12/27 06:59:49;;;;;;;200.65;114.05;;;;;;;18.60;87.66;99447.16;4802030;29;20559;-66
2021/12/27 07:02:38;;;;;;;181.93;106.53;;;;;;;18.32;83.72;99439.00;4788742;29;20043;-65
2021/12/27 07:05:20;;;;;;;187.25;108.10;;;;;;;18.14;84.25;99445.13;4790543;29;20395;-67
2021/12/27 07:08:18;;;;;;;192.90;107.15;;;;;;;18.11;82.35;99440.06;4789941;29;20053;-68
2021/12/27 07:10:54;;;;;;;196.40;107.93;;;;;;;17.94;85.89;99441.72;4791682;29;20042;-67
2021/12/27 07:13:43;;;;;;;200.25;111.10;;;;;;;18.02;86.15;99432.69;4788981;29;20055;-67
2021/12/27 07:16:32;;;;;;;197.85;108.53;;;;;;;18.08;87.19;99428.00;4788838;29;20633;-67
2021/12/27 07:19:15;;;;;;;197.73;109.17;;;;;;;18.07;86.77;99431.53;4797776;29;20693;-68
2021/12/27 07:22:04;;;;;;;199.38;110.75;;;;;;;18.21;84.49;99428.25;4783735;29;20310;-67
2021/12/27 07:24:46;;;;;;;189.30;107.82;;;;;;;18.42;83.07;99421.97;4781651;29;20083;-68
2021/12/27 07:27:35;;;;;;;199.85;106.43;;;;;;;18.30;82.18;99417.34;4787569;29;20055;-66
2021/12/27 07:30:17;;;;;;;187.32;105.18;;;;;;;18.70;82.79;99408.41;4778808;29;20043;-66
2021/12/27 07:33:06;;;;;;;184.68;100.25;;;;;;;18.85;82.57;99407.59;4782825;29;20055;-65
2021/12/27 07:35:48;;;;;;;180.00;100.20;;;;;;;18.91;80.56;99409.06;4786118;29;20048;-67
2021/12/27 07:38:38;;;;;;;182.50;98.07;;;;;;;19.01;78.48;99399.81;4788473;29;20062;-65
2021/12/27 07:41:20;;;;;;;175.40;96.43;;;;;;;19.01;74.10;99399.81;4797542;29;20161;-65
2021/12/27 07:44:10;;;;;;;178.57;100.40;;;;;;;19.21;76.97;99386.53;4783936;29;20460;-65
2021/12/27 07:46:52;;;;;;;192.05;102.57;;;;;;;19.21;77.56;99391.75;4798382;29;20138;-68
2021/12/27 07:49:41;;;;;;;168.18;96.40;;;;;;;19.20;75.88;99384.84;4797148;29;20748;-67
2021/12/27 07:52:23;;;;;;;170.52;93.55;;;;;;;19.23;76.18;99376.84;4788656;29;20589;-68
2021/12/27 07:55:13;;;;;;;176.88;94.18;;;;;;;19.31;77.33;99379.91;4789751;29;20046;-67
2021/12/27 07:57:57;;;;;;;166.82;94.35;;;;;;;19.15;74.04;99379.03;4789871;29;20123;-68
2021/12/27 08:00:50;;;;;;;164.95;90.38;;;;;;;18.89;73.44;99374.34;4791863;29;20048;-69
2021/12/27 08:03:45;;;;;;;167.95;93.00;;;;;;;18.94;72.91;99365.34;4786487;29;20058;-67
2021/12/27 08:06:20;;;;;;;170.85;90.90;;;;;;;19.18;74.89;99371.03;4792692;29;20426;-67
2021/12/27 08:09:15;;;;;;;158.75;85.72;;;;;;;19.14;72.22;99366.06;4790445;29;20133;-66
2021/12/27 08:11:51;;;;;;;148.80;79.32;;;;;;;19.16;70.23;99357.19;4789096;29;20079;-66
2021/12/27 08:14:47;;;;;;;129.67;71.47;;;;;;;19.13;64.91;99359.13;4792759;29;20069;-66
2021/12/27 08:17:23;;;;;;;127.38;66.05;;;;;;;19.05;61.92;99354.34;4786747;29;20368;-69
2021/12/27 08:20:12;;;;;;;143.70;78.55;;;;;;;18.84;64.23;99347.63;4783794;29;20428;-68
2021/12/27 08:23:01;;;;;;;164.15;88.78;;;;;;;19.06;67.54;99346.41;4766891;29;20507;-68
2021/12/27 08:25:50;;;;;;;175.88;92.05;;;;;;;19.14;69.25;99335.56;4789697;29;20055;-68
2021/12/27 08:28:39;;;;;;;189.38;100.38;;;;;;;19.08;70.70;99330.66;4787114;29;20059;-67
2021/12/27 08:31:33;;;;;;;202.00;109.38;;;;;;;19.05;73.33;99323.84;4803869;29;20047;-70
2021/12/27 08:34:08;;;;;;;205.27;111.93;;;;;;;19.20;72.51;99332.59;4786726;29;20403;-70
2021/12/27 08:36:59;;;;;;;211.57;112.40;;;;;;;19.28;73.63;99326.94;4782072;29;20666;-72
2021/12/27 08:39:48;;;;;;;197.23;110.07;;;;;;;19.13;69.89;99328.66;4794472;29;20298;-70
2021/12/27 08:42:41;;;;;;;199.32;108.00;;;;;;;19.23;69.66;99327.22;4795179;29;20062;-70
2021/12/27 08:45:30;;;;;;;194.00;103.28;;;;;;;19.35;72.08;99320.47;4799789;29;20050;-71
2021/12/27 08:48:12;;;;;;;215.65;110.28;;;;;;;19.24;69.40;99318.44;4782303;29;20176;-69
2021/12/27 08:51:01;;;;;;;209.05;110.95;;;;;;;19.23;70.61;99311.53;4781913;29;20051;-71
2021/12/27 08:53:43;;;;;;;197.55;108.63;;;;;;;19.07;70.55;99318.53;4784991;29;20535;-71
2021/12/27 08:56:32;;;;;;;201.05;110.50;;;;;;;19.18;70.26;99313.56;4782967;29;20126;-72
2021/12/27 08:59:15;;;;;;;202.27;112.22;;;;;;;19.04;69.44;99310.84;4784930;29;20767;-71
2021/12/27 09:02:12;;;;;;;192.05;106.15;;;;;;;19.02;72.78;99302.25;4781641;29;20055;-69
2021/12/27 09:04:50;;;;;;;186.57;99.07;;;;;;;19.02;69.72;99307.47;4784898;29;20057;-69
2021/12/27 09:07:39;;;;;;;182.90;96.18;;;;;;;18.98;71.46;99295.53;4786794;29;20128;-68
2021/12/27 09:10:21;;;;;;;169.40;90.72;;;;;;;19.03;68.46;99303.94;4784493;29;20055;-67
2021/12/27 09:13:10;;;;;;;155.73;80.50;;;;;;;18.91;66.00;99297.63;4788437;29;20066;-68
2021/12/27 09:16:01;;;;;;;155.15;82.03;;;;;;;19.05;67.54;99292.50;4784065;29;20055;-69
2021/12/27 09:18:50;;;;;;;149.40;79.78;;;;;;;19.14;68.28;99290.31;4785621;29;20055;-69
2021/12/27 09:21:32;;;;;;;146.70;78.93;;;;;;;18.99;68.95;99292.84;4782624;29;20054;-70
2021/12/27 09:24:28;;;;;;;142.90;73.57;;;;;;;19.02;67.62;99297.88;4789315;29;20124;-69
2021/12/27 09:27:04;;;;;;;139.45;71.72;;;;;;;18.98;68.16;99280.69;4794302;29;20051;-69
2021/12/27 09:29:53;;;;;;;138.00;71.90;;;;;;;18.84;68.03;99280.59;4773905;29;20115;-67
2021/12/27 09:32:42;;;;;;;136.38;72.28;;;;;;;18.96;69.68;99281.69;4789018;29;20059;-68
2021/12/27 09:35:24;;;;;;;139.75;69.63;;;;;;;18.96;69.75;99273.88;4789366;29;20349;-68
2021/12/27 09:38:14;;;;;;;141.70;68.70;;;;;;;19.04;68.77;99276.91;4790814;29;20123;-68
2021/12/27 09:40:56;;;;;;;124.40;66.53;;;;;;;18.92;69.67;99272.34;4790275;29;20047;-68
2021/12/27 09:43:45;;;;;;;133.55;65.63;;;;;;;18.83;67.87;99270.25;4781608;29;20055;-68
2021/12/27 09:46:35;;;;;;;116.82;63.80;;;;;;;18.87;70.35;99269.16;4783466;29;20066;-68
2021/12/27 09:49:29;;;;;;;118.43;61.40;;;;;;;18.73;69.07;99265.53;4785925;29;20157;-68
2021/12/27 09:52:18;;;;;;;116.55;61.60;;;;;;;18.82;68.50;99264.19;4783310;29;20074;-67
2021/12/27 09:55:03;;;;;;;119.13;59.80;;;;;;;18.76;68.64;99253.25;4792502;29;20467;-67
2021/12/27 09:57:52;;;;;;;120.25;60.85;;;;;;;18.74;68.17;99255.94;4792809;29;20050;-65
2021/12/27 10:00:36;;;;;;;100.63;52.67;;;;;;;18.58;65.13;99260.28;4791120;29;20062;-66
2021/12/27 10:03:25;;;;;;;94.43;52.42;;;;;;;18.70;66.55;99251.78;4782236;29;20055;-67
2021/12/27 10:06:19;;;;;;;96.47;52.65;;;;;;;18.66;66.36;99252.88;4801252;29;20048;-68
2021/12/27 10:09:08;;;;;;;94.70;50.10;;;;;;;18.61;65.98;99258.34;4827217;29;20145;-68
2021/12/27 10:11:57;;;;;;;93.30;50.10;;;;;;;18.65;65.36;99256.41;4824945;29;20061;-68
2021/12/27 10:14:46;;;;;;;96.75;50.75;;;;;;;18.62;66.84;99246.97;4821876;29;20058;-68
2021/12/27 10:17:30;;;;;;;97.20;51.43;;;;;;;18.58;68.02;99248.06;4822851;29;20050;-68
2021/12/27 10:20:24;;;;;;;91.32;49.75;;;;;;;18.47;67.10;99255.59;4808134;29;20106;-67
2021/12/27 10:23:06;;;;;;;105.15;50.85;;;;;;;18.40;67.71;99249.00;4825133;29;20148;-68
2021/12/27 10:25:56;;;;;;;92.13;49.90;;;;;;;18.45;68.80;99252.22;4825890;29;20403;-67
2021/12/27 10:28:38;;;;;;;98.05;52.53;;;;;;;18.39;69.47;99249.94;4822936;29;20050;-67
2021/12/27 10:31:27;;;;;;;100.28;50.63;;;;;;;18.37;69.80;99249.16;4827881;29;20059;-67
2021/12/27 10:34:17;;;;;;;90.05;50.97;;;;;;;18.30;69.83;99240.81;4821288;29;20054;-68
2021/12/27 10:37:13;;;;;;;84.03;44.17;;;;;;;18.26;67.68;99248.91;4813296;29;20065;-68
2021/12/27 10:40:06;;;;;;;84.20;44.50;;;;;;;18.24;68.23;99240.31;4822666;29;20046;-69
2021/12/27 10:42:50;;;;;;;76.53;43.88;;;;;;;18.25;67.62;99248.06;4819598;29;20058;-67
2021/12/27 10:45:39;;;;;;;88.25;44.70;;;;;;;18.08;72.20;99240.25;4823385;29;20276;-68
2021/12/27 10:48:22;;;;;;;81.80;45.45;;;;;;;17.92;74.28;99240.19;4824597;29;20053;-68
2021/12/27 10:51:13;;;;;;;94.50;48.00;;;;;;;17.75;73.82;99231.53;4827827;29;20551;-68
2021/12/27 10:54:15;;;;;;;96.25;50.17;;;;;;;17.75;76.94;99229.78;4825922;29;20049;-67
2021/12/27 10:56:53;;;;;;;99.50;50.95;;;;;;;17.60;74.86;99238.34;4826179;29;20046;-67
2021/12/27 10:59:42;;;;;;;100.07;49.58;;;;;;;17.55;72.84;99243.78;4826140;29;20050;-66
2021/12/27 11:02:39;;;;;;;94.68;49.60;;;;;;;17.49;75.01;99241.47;4827758;29;20054;-67
2021/12/27 11:05:30;;;;;;;95.28;48.97;;;;;;;17.42;76.57;99245.28;4824963;29;20106;-67
2021/12/27 11:08:18;;;;;;;105.55;47.53;;;;;;;17.39;76.09;99244.59;4824441;29;20057;-67
2021/12/27 11:11:01;;;;;;;94.30;48.58;;;;;;;17.38;78.09;99245.53;4823195;29;20137;-67
2021/12/27 11:13:53;;;;;;;95.70;48.35;;;;;;;17.29;78.84;99243.34;4826814;29;20584;-68
2021/12/27 11:16:36;;;;;;;94.82;47.80;;;;;;;17.16;81.86;99245.72;4823759;29;20695;-69
2021/12/27 11:19:25;;;;;;;94.95;49.70;;;;;;;16.98;84.58;99242.22;4823676;29;20062;-68
2021/12/27 11:22:22;;;;;;;102.40;49.85;;;;;;;16.89;87.00;99245.25;4826094;29;20050;-69
2021/12/27 11:25:03;;;;;;;84.13;47.30;;;;;;;16.81;85.63;99236.94;4831977;29;20088;-69
2021/12/27 11:27:52;;;;;;;96.75;48.80;;;;;;;16.60;88.60;99235.31;4831283;29;20054;-69
2021/12/27 11:30:37;;;;;;;101.90;49.03;;;;;;;16.54;90.87;99227.75;4825069;29;20077;-69
2021/12/27 11:33:27;;;;;;;93.07;49.65;;;;;;;16.50;92.67;99234.03;4823533;29;20615;-71
2021/12/27 11:36:16;;;;;;;95.25;49.75;;;;;;;16.33;94.27;99230.44;4821300;29;20058;-68
2021/12/27 11:39:39;;;;;;;106.85;51.25;;;;;;;16.24;98.25;99235.19;4825301;29;20057;-69
2021/12/27 11:42:17;;;;;;;102.93;49.65;;;;;;;16.04;97.49;99229.09;4826901;29;20518;-69
2021/12/27 11:45:06;;;;;;;103.80;51.35;;;;;;;15.89;99.98;99229.75;4828433;29;20372;-69
2021/12/27 11:48:12;;;;;;;109.00;52.58;;;;;;;15.78;99.61;99229.38;4828901;29;20482;-69
2021/12/27 11:50:57;;;;;;;110.20;53.38;;;;;;;15.79;100.00;99233.69;4829781;29;20058;-69
2021/12/27 11:53:52;;;;;;;101.60;52.72;;;;;;;15.74;99.61;99230.41;4830063;29;20062;-69
2021/12/27 11:56:46;;;;;;;97.53;50.55;;;;;;;15.67;100.00;99234.19;4832485;29;20054;-69
2021/12/27 11:59:42;;;;;;;104.20;51.92;;;;;;;15.60;100.00;99225.81;4833253;29;20050;-69
2021/12/27 12:02:25;;;;;;;111.53;54.03;;;;;;;15.57;100.00;99235.47;4827469;29;20089;-69
2021/12/27 12:05:14;;;;;;;111.07;54.10;;;;;;;15.44;100.00;99236.84;4827080;29;20574;-70
2021/12/27 12:07:56;;;;;;;111.32;57.92;;;;;;;15.37;100.00;99230.22;4833325;29;20057;-69
2021/12/27 12:10:57;;;;;;;123.68;61.90;;;;;;;15.33;100.00;99234.69;4822307;29;20475;-69
2021/12/27 12:13:43;;;;;;;;;;;;;;;15.24;100.00;99229.88;4825135;29;20061;-69
2021/12/27 12:16:32;;;;;;;116.35;62.55;;;;;;;15.18;100.00;99235.28;4831541;29;19936;-70
2021/12/27 12:19:14;;;;;;;131.52;66.07;;;;;;;15.13;100.00;99232.91;4810608;29;20762;-70
2021/12/27 12:22:03;;;;;;;128.55;68.53;;;;;;;15.06;100.00;99233.19;4835406;29;20084;-77
2021/12/27 12:24:46;;;;;;;134.57;70.38;;;;;;;14.96;100.00;99239.63;4816943;29;20057;-71
2021/12/27 12:27:35;;;;;;;138.45;68.97;;;;;;;14.93;100.00;99235.41;4829513;29;20088;-70
2021/12/27 12:30:17;;;;;;;138.65;67.10;;;;;;;14.90;100.00;99236.41;4821975;29;20053;-71
2021/12/27 12:33:16;;;;;;;148.77;68.00;;;;;;;14.80;100.00;99245.41;4827333;29;20066;-72